Time,TemperatureF,DewpointF,PressureIn,WindDirection,WindDirectionDegrees,WindSpeedMPH,WindSpeedGustMPH,Humidity,HourlyPrecipIn,Conditions,Clouds,dailyrainin,SoftwareType,DateUTC
2013-02-03 00:31:00,23.6,22.0,30.05,SSW,205,0.0,0.0,92,0.00,,,0.00,weatherlink.com 1.10,2013-02-03 05:31:00,
2013-02-03 00:45:00,23.5,22.0,30.05,SSW,198,0.0,0.0,92,0.00,,,0.00,weatherlink.com 1.10,2013-02-03 05:45:00,
2013-02-03 01:01:00,23.8,22.0,30.05,SSW,198,0.0,0.0,92,0.00,,,0.00,weatherlink.com 1.10,2013-02-03 06:01:00,
2013-02-03 01:15:00,23.5,22.0,30.04,SSW,198,0.0,0.0,92,0.00,,,0.00,weatherlink.com 1.10,2013-02-03 06:15:00,
2013-02-03 01:31:00,23.4,22.0,30.03,SSW,198,0.0,0.0,92,0.00,,,0.00,weatherlink.com 1.10,2013-02-03 06:31:00,
2013-02-03 01:45:00,23.3,21.0,30.02,SSW,198,0.0,0.0,92,0.00,,,0.00,weatherlink.com 1.10,2013-02-03 06:45:00,
2013-02-03 02:01:00,23.3,22.0,30.02,SE,137,0.0,1.0,93,0.00,,,0.00,weatherlink.com 1.10,2013-02-03 07:01:00,
2013-02-03 02:16:00,23.2,22.0,30.01,SE,137,0.0,0.0,93,0.00,,,0.00,weatherlink.com 1.10,2013-02-03 07:16:00,
2013-02-03 02:31:00,22.8,21.0,30.01,SE,137,0.0,0.0,93,0.00,,,0.00,weatherlink.com 1.10,2013-02-03 07:31:00,
2013-02-03 02:46:00,22.5,21.0,30.00,SW,234,1.0,1.0,93,0.00,,,0.00,weatherlink.com 1.10,2013-02-03 07:46:00,
2013-02-03 03:01:00,22.5,21.0,30.00,WSW,243,0.0,0.0,93,0.00,,,0.00,weatherlink.com 1.10,2013-02-03 08:01:00,
2013-02-03 03:16:00,22.4,21.0,29.99,North,355,0.0,2.0,93,0.00,,,0.00,weatherlink.com 1.10,2013-02-03 08:16:00,
2013-02-03 03:31:00,22.2,21.0,29.99,NNW,345,0.0,1.0,94,0.00,,,0.00,weatherlink.com 1.10,2013-02-03 08:31:00,
2013-02-03 03:46:00,22.2,21.0,29.98,NNW,345,0.0,0.0,94,0.00,,,0.00,weatherlink.com 1.10,2013-02-03 08:46:00,
2013-02-03 04:01:00,22.5,21.0,29.98,NNE,28,0.0,2.0,93,0.00,,,0.00,weatherlink.com 1.10,2013-02-03 09:01:00,
2013-02-03 04:16:00,22.8,21.0,29.98,NNE,28,0.0,1.0,93,0.00,,,0.00,weatherlink.com 1.10,2013-02-03 09:16:00,
2013-02-03 04:31:00,22.6,21.0,29.97,NNE,28,0.0,0.0,93,0.00,,,0.00,weatherlink.com 1.10,2013-02-03 09:31:00,
2013-02-03 04:46:00,22.5,21.0,29.96,NE,51,2.0,3.0,92,0.00,,,0.00,weatherlink.com 1.10,2013-02-03 09:46:00,
2013-02-03 05:01:00,22.2,20.0,29.96,NE,49,0.0,3.0,92,0.00,,,0.00,weatherlink.com 1.10,2013-02-03 10:01:00,
2013-02-03 05:16:00,21.8,20.0,29.97,NE,49,1.0,2.0,92,0.00,,,0.00,weatherlink.com 1.10,2013-02-03 10:16:00,
2013-02-03 05:32:00,21.3,19.0,29.97,NE,49,0.0,0.0,92,0.00,,,0.00,weatherlink.com 1.10,2013-02-03 10:32:00,
2013-02-03 05:47:00,20.9,19.0,29.97,NE,49,0.0,0.0,93,0.00,,,0.00,weatherlink.com 1.10,2013-02-03 10:47:00,
2013-02-03 06:03:00,20.4,19.0,29.97,NE,49,0.0,0.0,93,0.00,,,0.00,weatherlink.com 1.10,2013-02-03 11:03:00,
2013-02-03 06:16:00,20.2,19.0,29.96,NE,49,0.0,0.0,93,0.00,,,0.00,weatherlink.com 1.10,2013-02-03 11:16:00,
2013-02-03 06:31:00,19.5,18.0,29.96,NE,49,0.0,0.0,93,0.00,,,0.00,weatherlink.com 1.10,2013-02-03 11:31:00,
2013-02-03 06:47:00,19.3,18.0,29.96,NE,49,0.0,0.0,94,0.00,,,0.00,weatherlink.com 1.10,2013-02-03 11:47:00,
2013-02-03 07:03:00,19.1,17.0,29.97,NE,49,0.0,0.0,93,0.00,,,0.00,weatherlink.com 1.10,2013-02-03 12:03:00,
2013-02-03 07:17:00,18.8,17.0,29.97,NE,49,0.0,0.0,94,0.00,,,0.00,weatherlink.com 1.10,2013-02-03 12:17:00,
2013-02-03 07:33:00,19.1,18.0,29.97,NE,49,0.0,0.0,94,0.00,,,0.00,weatherlink.com 1.10,2013-02-03 12:33:00,
2013-02-03 07:47:00,19.8,18.0,29.97,NE,49,0.0,0.0,94,0.00,,,0.00,weatherlink.com 1.10,2013-02-03 12:47:00,
2013-02-03 08:03:00,20.5,19.0,29.98,NE,49,0.0,0.0,94,0.00,,,0.00,weatherlink.com 1.10,2013-02-03 13:03:00,
2013-02-03 08:17:00,21.4,20.0,29.98,NE,49,0.0,0.0,93,0.00,,,0.00,weatherlink.com 1.10,2013-02-03 13:17:00,
2013-02-03 08:33:00,22.0,20.0,29.98,NE,49,0.0,0.0,93,0.00,,,0.00,weatherlink.com 1.10,2013-02-03 13:33:00,
2013-02-03 08:47:00,23.6,21.0,29.98,NE,49,0.0,0.0,91,0.00,,,0.00,weatherlink.com 1.10,2013-02-03 13:47:00,
2013-02-03 09:03:00,24.2,22.0,29.98,SE,126,0.0,1.0,89,0.00,,,0.00,weatherlink.com 1.10,2013-02-03 14:03:00,
2013-02-03 09:17:00,24.4,21.0,29.98,SE,138,0.0,0.0,88,0.00,,,0.00,weatherlink.com 1.10,2013-02-03 14:17:00,
2013-02-03 09:33:00,24.9,22.0,29.98,SSE,158,0.0,2.0,88,0.00,,,0.00,weatherlink.com 1.10,2013-02-03 14:33:00,
2013-02-03 09:47:00,24.5,21.0,29.98,East,89,0.0,0.0,86,0.00,,,0.00,weatherlink.com 1.10,2013-02-03 14:47:00,
2013-02-03 10:03:00,25.8,22.0,29.97,SSE,151,0.0,2.0,85,0.00,,,0.00,weatherlink.com 1.10,2013-02-03 15:03:00,
2013-02-03 10:17:00,26.1,22.0,29.97,SSE,158,0.0,1.0,84,0.00,,,0.00,weatherlink.com 1.10,2013-02-03 15:17:00,
2013-02-03 10:33:00,25.9,22.0,29.96,SSE,159,1.0,3.0,85,0.00,,,0.00,weatherlink.com 1.10,2013-02-03 15:33:00,
2013-02-03 10:48:00,26.8,22.0,29.96,East,81,0.0,3.0,83,0.02,,,0.02,weatherlink.com 1.10,2013-02-03 15:48:00,
2013-02-03 11:03:00,27.0,23.0,29.95,NNE,30,0.0,1.0,83,0.02,,,0.02,weatherlink.com 1.10,2013-02-03 16:03:00,
2013-02-03 11:18:00,28.1,22.0,29.94,ESE,103,1.0,3.0,79,0.04,,,0.04,weatherlink.com 1.10,2013-02-03 16:18:00,
2013-02-03 11:33:00,28.5,23.0,29.93,South,188,2.0,3.0,80,0.03,,,0.04,weatherlink.com 1.10,2013-02-03 16:33:00,
2013-02-03 11:48:00,27.9,22.0,29.93,South,180,0.0,3.0,79,0.03,,,0.05,weatherlink.com 1.10,2013-02-03 16:48:00,
2013-02-03 12:03:00,28.1,22.0,29.92,South,179,0.0,1.0,79,0.03,,,0.05,weatherlink.com 1.10,2013-02-03 17:03:00,
2013-02-03 12:18:00,27.4,22.0,29.91,SSE,167,0.0,1.0,79,0.02,,,0.06,weatherlink.com 1.10,2013-02-03 17:18:00,
2013-02-03 12:33:00,27.3,22.0,29.91,NW,315,0.0,2.0,79,0.02,,,0.06,weatherlink.com 1.10,2013-02-03 17:33:00,
2013-02-03 12:48:00,29.3,20.0,29.90,WSW,240,0.0,4.0,68,0.01,,,0.06,weatherlink.com 1.10,2013-02-03 17:48:00,
2013-02-03 13:03:00,30.2,21.0,29.89,South,185,0.0,4.0,69,0.02,,,0.07,weatherlink.com 1.10,2013-02-03 18:03:00,
2013-02-03 13:18:00,29.3,21.0,29.89,SW,216,2.0,4.0,70,0.02,,,0.08,weatherlink.com 1.10,2013-02-03 18:18:00,
2013-02-03 13:33:00,28.6,21.0,29.87,NW,321,1.0,3.0,74,0.02,,,0.08,weatherlink.com 1.10,2013-02-03 18:33:00,
2013-02-03 13:48:00,29.2,22.0,29.87,NE,51,0.0,2.0,74,0.02,,,0.08,weatherlink.com 1.10,2013-02-03 18:48:00,
2013-02-03 14:03:00,28.8,21.0,29.86,West,277,2.0,5.0,73,0.02,,,0.09,weatherlink.com 1.10,2013-02-03 19:03:00,
2013-02-03 14:18:00,29.6,23.0,29.86,SE,146,0.0,3.0,75,0.01,,,0.09,weatherlink.com 1.10,2013-02-03 19:18:00,
2013-02-03 14:34:00,29.9,23.0,29.86,SSW,201,0.0,4.0,75,0.01,,,0.09,weatherlink.com 1.10,2013-02-03 19:34:00,
2013-02-03 14:49:00,29.6,23.0,29.86,WSW,238,2.0,4.0,75,0.01,,,0.09,weatherlink.com 1.10,2013-02-03 19:49:00,
2013-02-03 15:04:00,29.0,23.0,29.86,WNW,286,0.0,0.0,77,0.00,,,0.09,weatherlink.com 1.10,2013-02-03 20:04:00,
2013-02-03 15:19:00,28.7,23.0,29.86,West,269,0.0,3.0,79,0.00,,,0.09,weatherlink.com 1.10,2013-02-03 20:19:00,
2013-02-03 15:34:00,29.1,24.0,29.86,West,271,0.0,2.0,82,0.00,,,0.09,weatherlink.com 1.10,2013-02-03 20:34:00,
2013-02-03 15:49:00,30.1,25.0,29.86,SSW,193,1.0,3.0,80,0.00,,,0.09,weatherlink.com 1.10,2013-02-03 20:49:00,
2013-02-03 16:04:00,29.7,25.0,29.86,WSW,240,0.0,3.0,81,0.01,,,0.10,weatherlink.com 1.10,2013-02-03 21:04:00,
2013-02-03 16:19:00,30.1,25.0,29.86,South,184,0.0,2.0,81,0.01,,,0.10,weatherlink.com 1.10,2013-02-03 21:19:00,
2013-02-03 16:34:00,29.2,24.0,29.86,SSW,205,0.0,2.0,82,0.01,,,0.10,weatherlink.com 1.10,2013-02-03 21:34:00,
2013-02-03 16:49:00,29.2,25.0,29.85,SSW,205,0.0,0.0,84,0.00,,,0.10,weatherlink.com 1.10,2013-02-03 21:49:00,
2013-02-03 17:04:00,29.0,25.0,29.85,SSW,205,0.0,0.0,85,0.00,,,0.10,weatherlink.com 1.10,2013-02-03 22:04:00,
2013-02-03 17:19:00,28.8,25.0,29.85,SSW,201,0.0,2.0,86,0.00,,,0.10,weatherlink.com 1.10,2013-02-03 22:19:00,
2013-02-03 17:34:00,28.5,25.0,29.85,SSW,201,0.0,0.0,86,0.00,,,0.10,weatherlink.com 1.10,2013-02-03 22:34:00,
2013-02-03 17:49:00,28.0,25.0,29.85,SSW,201,0.0,0.0,88,0.00,,,0.10,weatherlink.com 1.10,2013-02-03 22:49:00,
2013-02-03 18:04:00,27.3,25.0,29.85,SSW,201,0.0,1.0,89,0.00,,,0.10,weatherlink.com 1.10,2013-02-03 23:04:00,
2013-02-03 18:19:00,27.1,25.0,29.86,SSW,201,0.0,0.0,90,0.00,,,0.10,weatherlink.com 1.10,2013-02-03 23:19:00,
2013-02-03 18:34:00,27.0,25.0,29.86,SSW,201,0.0,0.0,90,0.00,,,0.10,weatherlink.com 1.10,2013-02-03 23:34:00,
2013-02-03 18:49:00,26.6,24.0,29.86,SSW,201,0.0,0.0,91,0.00,,,0.10,weatherlink.com 1.10,2013-02-03 23:49:00,
2013-02-03 19:04:00,26.6,24.0,29.86,SSW,201,0.0,0.0,91,0.00,,,0.10,weatherlink.com 1.10,2013-02-04 00:04:00,
2013-02-03 19:19:00,26.8,25.0,29.86,SSW,201,0.0,0.0,91,0.00,,,0.10,weatherlink.com 1.10,2013-02-04 00:19:00,
2013-02-03 19:34:00,27.5,25.0,29.87,SSW,201,0.0,1.0,90,0.00,,,0.10,weatherlink.com 1.10,2013-02-04 00:34:00,
2013-02-03 19:49:00,27.9,25.0,29.87,SW,224,0.0,2.0,88,0.00,,,0.10,weatherlink.com 1.10,2013-02-04 00:49:00,
2013-02-03 20:04:00,28.0,25.0,29.87,WSW,239,1.0,3.0,89,0.00,,,0.10,weatherlink.com 1.10,2013-02-04 01:04:00,
2013-02-03 20:19:00,28.0,26.0,29.87,WSW,243,3.0,3.0,91,0.00,,,0.10,weatherlink.com 1.10,2013-02-04 01:19:00,
2013-02-03 20:34:00,28.1,26.0,29.87,WSW,239,1.0,6.0,91,0.00,,,0.10,weatherlink.com 1.10,2013-02-04 01:34:00,
2013-02-03 20:49:00,28.1,26.0,29.88,SW,220,0.0,3.0,91,0.00,,,0.10,weatherlink.com 1.10,2013-02-04 01:49:00,
2013-02-03 21:05:00,27.4,25.0,29.89,WNW,289,3.0,12.0,92,0.00,,,0.10,weatherlink.com 1.10,2013-02-04 02:05:00,
2013-02-03 21:20:00,27.3,25.0,29.89,WNW,302,4.0,10.0,92,0.00,,,0.10,weatherlink.com 1.10,2013-02-04 02:20:00,
2013-02-03 21:35:00,27.5,25.0,29.90,NNW,331,4.0,9.0,91,0.00,,,0.10,weatherlink.com 1.10,2013-02-04 02:35:00,
2013-02-03 21:50:00,27.5,24.0,29.91,West,268,9.0,16.0,85,0.00,,,0.10,weatherlink.com 1.10,2013-02-04 02:50:00,
2013-02-03 22:05:00,27.4,22.0,29.91,WNW,290,5.0,11.0,81,0.00,,,0.10,weatherlink.com 1.10,2013-02-04 03:05:00,
2013-02-03 22:20:00,26.4,22.0,29.92,West,272,5.0,11.0,83,0.00,,,0.10,weatherlink.com 1.10,2013-02-04 03:20:00,
2013-02-03 22:35:00,25.6,20.0,29.93,West,271,11.0,11.0,79,0.00,,,0.10,weatherlink.com 1.10,2013-02-04 03:35:00,
2013-02-03 22:50:00,25.5,18.0,29.93,NW,316,11.0,13.0,73,0.00,,,0.10,weatherlink.com 1.10,2013-02-04 03:50:00,
2013-02-03 23:05:00,25.5,17.0,29.94,NNW,332,3.0,9.0,70,0.00,,,0.10,weatherlink.com 1.10,2013-02-04 04:05:00,
2013-02-03 23:20:00,25.4,15.0,29.95,West,270,4.0,14.0,64,0.00,,,0.10,weatherlink.com 1.10,2013-02-04 04:20:00,
2013-02-03 23:35:00,24.7,15.0,29.95,NNW,346,6.0,12.0,66,0.00,,,0.10,weatherlink.com 1.10,2013-02-04 04:35:00,
2013-02-03 23:50:00,23.9,15.0,29.95,WNW,296,2.0,10.0,70,0.00,,,0.10,weatherlink.com 1.10,2013-02-04 04:50:00,